Time;durP1;ratioP1;P1;durP2;ratioP2;P2;SDS_P1;SDS_P2;PMS_P1;PMS_P2;Temp;Humidity;BMP_temperature;BMP_pressure;BME280_temperature;BME280_humidity;BME280_pressure;Samples;Min_cycle;Max_cycle;Signal;HPM_P1;HPM_P2
2022/03/12 00:01:04;;;;;;;;;;;9.30;99.90;;;;;;4914090;29;19916;-86
2022/03/12 00:03:33;;;;;;;;;;;9.70;99.90;;;;;;4913134;29;19934;-86
2022/03/12 00:06:02;;;;;;;;;;;9.30;99.90;;;;;;4911555;29;19927;-85
2022/03/12 00:08:44;;;;;;;;;;;9.30;99.90;;;;;;4912215;29;19931;-86
2022/03/12 00:11:19;;;;;;;;;;;9.30;99.90;;;;;;4939968;29;19934;-85
2022/03/12 00:13:51;;;;;;;;;;;8.50;99.90;;;;;;4922519;29;20012;-85
2022/03/12 00:16:23;;;;;;;;;;;9.40;99.90;;;;;;4920358;29;19927;-85
2022/03/12 00:18:55;;;;;;;;;;;9.40;99.90;;;;;;4929468;29;19928;-85
2022/03/12 00:21:35;;;;;;;;;;;9.40;99.90;;;;;;4914128;29;19928;-85
2022/03/12 00:24:05;;;;;;;;;;;9.40;99.90;;;;;;4925920;29;19956;-86
2022/03/12 00:26:39;;;;;;;;;;;9.40;99.90;;;;;;4911541;29;19923;-85
2022/03/12 00:29:14;;;;;;;;;;;9.40;99.90;;;;;;4882374;29;19931;-85
2022/03/12 00:31:46;;;;;;;;;;;9.40;99.90;;;;;;4940427;29;19934;-85
2022/03/12 00:34:19;;;;;;;;;;;9.40;99.90;;;;;;4922096;29;19927;-85
2022/03/12 00:36:50;;;;;;;;;;;9.40;99.90;;;;;;4926827;29;19928;-85
2022/03/12 00:39:36;;;;;;;;;;;9.40;99.90;;;;;;4934478;29;19931;-84
2022/03/12 00:42:05;;;;;;;;;;;9.40;99.90;;;;;;4922335;29;19934;-84
2022/03/12 00:44:35;;;;;;;;;;;9.50;99.90;;;;;;4907238;29;19927;-85
2022/03/12 00:47:03;;;;;;;;;;;9.50;99.90;;;;;;4923732;29;19927;-83
2022/03/12 00:49:31;;;;;;;;;;;9.70;99.90;;;;;;4909066;29;19928;-83
2022/03/12 00:51:59;;;;;;;;;;;9.50;99.90;;;;;;4912109;29;20184;-84
2022/03/12 00:54:27;;;;;;;;;;;9.50;99.90;;;;;;4944270;29;19927;-83
2022/03/12 00:56:57;;;;;;;;;;;9.50;99.90;;;;;;4914143;29;19945;-84
2022/03/12 00:59:25;;;;;;;;;;;9.50;99.90;;;;;;4926953;29;19927;-85
2022/03/12 01:01:54;;;;;;;;;;;9.50;99.90;;;;;;4908725;29;19931;-85
2022/03/12 01:04:22;;;;;;;;;;;9.50;99.90;;;;;;4902994;29;19928;-85
2022/03/12 01:06:49;;;;;;;;;;;9.50;99.90;;;;;;4913246;29;19939;-85
2022/03/12 01:09:17;;;;;;;;;;;9.50;99.90;;;;;;4912711;29;20128;-85
2022/03/12 01:11:47;;;;;;;;;;;9.50;99.90;;;;;;4913120;29;19927;-84
2022/03/12 01:14:16;;;;;;;;;;;9.50;99.90;;;;;;4897267;29;19931;-86
2022/03/12 01:16:45;;;;;;;;;;;9.50;99.90;;;;;;4912154;29;19934;-85
2022/03/12 01:19:15;;;;;;;;;;;9.40;99.90;;;;;;4914255;29;19937;-85
2022/03/12 01:21:47;;;;;;;;;;;9.40;99.90;;;;;;4913960;29;19946;-84
2022/03/12 01:24:16;;;;;;;;;;;9.40;99.90;;;;;;4926725;29;19927;-85
2022/03/12 01:26:46;;;;;;;;;;;9.40;99.90;;;;;;4943363;29;19928;-84
2022/03/12 01:29:14;;;;;;;;;;;9.40;99.90;;;;;;4935427;29;19919;-85
2022/03/12 01:31:42;;;;;;;;;;;9.40;99.90;;;;;;4894542;29;19934;-84
2022/03/12 01:34:11;;;;;;;;;;;9.40;99.90;;;;;;4924120;29;19928;-84
2022/03/12 01:36:41;;;;;;;;;;;9.40;99.90;;;;;;4912468;29;19936;-86
2022/03/12 01:39:08;;;;;;;;;;;10.10;99.90;;;;;;4894674;29;19931;-84
2022/03/12 01:41:42;;;;;;;;;;;9.40;99.90;;;;;;4914104;29;19937;-84
2022/03/12 01:44:18;;;;;;;;;;;9.50;99.90;;;;;;4913822;29;19938;-84
2022/03/12 01:46:48;;;;;;;;;;;9.50;99.90;;;;;;4913065;29;20278;-84
2022/03/12 01:49:18;;;;;;;;;;;9.40;99.90;;;;;;4902647;29;19928;-84
2022/03/12 01:51:50;;;;;;;;;;;9.40;99.90;;;;;;4910658;29;19946;-84
2022/03/12 01:54:20;;;;;;;;;;;9.40;99.90;;;;;;4909142;29;19932;-84
2022/03/12 01:56:48;;;;;;;;;;;9.40;99.90;;;;;;4920794;29;19938;-85
2022/03/12 01:59:16;;;;;;;;;;;9.40;99.90;;;;;;4922418;29;19932;-84
2022/03/12 02:01:46;;;;;;;;;;;9.40;99.90;;;;;;4912965;29;19919;-85
2022/03/12 02:04:16;;;;;;;;;;;9.30;99.90;;;;;;4911585;29;19933;-84
2022/03/12 02:06:46;;;;;;;;;;;9.30;99.90;;;;;;4909919;29;19916;-85
2022/03/12 02:09:15;;;;;;;;;;;9.20;99.90;;;;;;4909921;29;19936;-84
2022/03/12 02:11:48;;;;;;;;;;;9.20;99.90;;;;;;4895334;29;19911;-84
2022/03/12 02:14:16;;;;;;;;;;;9.20;99.90;;;;;;4911631;29;19942;-84
2022/03/12 02:16:47;;;;;;;;;;;9.20;99.90;;;;;;4897974;29;19934;-84
2022/03/12 02:19:19;;;;;;;;;;;9.20;99.90;;;;;;4890961;29;19934;-84
2022/03/12 02:21:52;;;;;;;;;;;9.20;99.90;;;;;;4926219;29;19941;-84
2022/03/12 02:24:21;;;;;;;;;;;9.50;99.90;;;;;;4891141;29;20188;-84
2022/03/12 02:26:49;;;;;;;;;;;9.30;99.90;;;;;;4869008;29;19927;-85
2022/03/12 02:29:20;;;;;;;;;;;9.30;99.90;;;;;;4912852;29;19927;-84
2022/03/12 02:31:57;;;;;;;;;;;9.30;99.90;;;;;;4942637;29;19928;-85
2022/03/12 02:34:30;;;;;;;;;;;9.30;99.90;;;;;;4942507;29;19932;-85
2022/03/12 02:36:59;;;;;;;;;;;9.30;99.90;;;;;;4910989;29;20517;-85
2022/03/12 02:39:27;;;;;;;;;;;9.30;99.90;;;;;;4911872;29;19931;-85
2022/03/12 02:41:55;;;;;;;;;;;9.30;99.90;;;;;;4943469;29;19931;-85
2022/03/12 02:44:27;;;;;;;;;;;9.40;99.90;;;;;;4912153;29;19931;-85
2022/03/12 02:47:13;;;;;;;;;;;9.30;99.90;;;;;;4910977;29;19934;-84
2022/03/12 02:49:48;;;;;;;;;;;9.30;99.90;;;;;;4916846;29;19938;-84
2022/03/12 02:52:18;;;;;;;;;;;9.30;99.90;;;;;;4924438;29;19938;-85
2022/03/12 02:54:47;;;;;;;;;;;9.30;99.90;;;;;;4926654;29;19927;-84
2022/03/12 02:57:17;;;;;;;;;;;9.30;99.90;;;;;;4875756;29;19927;-84
2022/03/12 02:59:52;;;;;;;;;;;9.30;99.90;;;;;;4939882;29;19928;-84
2022/03/12 03:02:25;;;;;;;;;;;9.30;99.90;;;;;;4920181;29;19927;-84
2022/03/12 03:04:56;;;;;;;;;;;9.30;99.90;;;;;;4912154;29;19938;-83
2022/03/12 03:07:29;;;;;;;;;;;9.30;99.90;;;;;;4912144;29;19927;-83
2022/03/12 03:09:57;;;;;;;;;;;9.20;99.90;;;;;;4900084;29;19943;-84
2022/03/12 03:12:25;;;;;;;;;;;9.20;99.90;;;;;;4896346;29;19938;-85
2022/03/12 03:14:53;;;;;;;;;;;9.10;99.90;;;;;;4912415;29;19933;-85
2022/03/12 03:17:22;;;;;;;;;;;9.10;99.90;;;;;;4915213;29;19937;-84
2022/03/12 03:19:52;;;;;;;;;;;9.00;99.90;;;;;;4915610;29;19928;-84
2022/03/12 03:22:20;;;;;;;;;;;8.90;99.90;;;;;;4927402;29;19928;-84
2022/03/12 03:24:48;;;;;;;;;;;9.00;99.90;;;;;;4910298;29;19938;-85
2022/03/12 03:27:17;;;;;;;;;;;9.00;99.90;;;;;;4914240;29;20026;-84
2022/03/12 03:29:45;;;;;;;;;;;9.00;99.90;;;;;;4915776;29;19931;-85
2022/03/12 03:32:13;;;;;;;;;;;9.00;99.90;;;;;;4899777;29;19935;-84
2022/03/12 03:34:41;;;;;;;;;;;9.00;99.90;;;;;;4916448;29;19936;-85
2022/03/12 03:37:09;;;;;;;;;;;7.20;99.90;;;;;;4931960;29;19934;-84
2022/03/12 03:39:38;;;;;;;;;;;9.00;99.90;;;;;;4918738;29;19927;-86
2022/03/12 03:42:06;;;;;;;;;;;9.00;99.90;;;;;;4918045;29;19928;-84
2022/03/12 03:44:34;;;;;;;;;;;9.00;99.90;;;;;;4932761;29;19934;-85
2022/03/12 03:47:02;;;;;;;;;;;9.10;99.90;;;;;;4946643;29;19932;-84
2022/03/12 03:49:29;;;;;;;;;;;10.20;99.90;;;;;;4914214;29;20033;-84
2022/03/12 03:51:58;;;;;;;;;;;9.10;99.90;;;;;;4946833;29;19939;-85
2022/03/12 03:54:29;;;;;;;;;;;9.10;99.90;;;;;;4944900;29;19927;-85
2022/03/12 03:56:57;;;;;;;;;;;9.10;99.90;;;;;;4896910;29;19928;-85
2022/03/12 03:59:28;;;;;;;;;;;9.10;99.90;;;;;;4906927;29;20116;-84
2022/03/12 04:01:56;;;;;;;;;;;9.10;99.90;;;;;;4914488;29;19928;-84
2022/03/12 04:04:28;;;;;;;;;;;9.00;99.90;;;;;;4946245;29;19934;-84
2022/03/12 04:06:58;;;;;;;;;;;9.00;99.90;;;;;;4899156;29;19934;-84
2022/03/12 04:09:27;;;;;;;;;;;8.90;99.90;;;;;;4897943;29;19934;-85
2022/03/12 04:12:20;;;;;;;;;;;8.90;99.90;;;;;;4910198;29;19936;-85
2022/03/12 04:15:13;;;;;;;;;;;8.90;99.90;;;;;;4911052;29;19951;-85
2022/03/12 04:17:41;;;;;;;;;;;8.90;99.90;;;;;;4928426;29;19927;-85
2022/03/12 04:20:09;;;;;;;;;;;8.90;99.90;;;;;;4910654;29;19923;-85
2022/03/12 04:22:38;;;;;;;;;;;8.80;99.90;;;;;;4871486;29;19928;-86
2022/03/12 04:25:11;;;;;;;;;;;8.70;99.90;;;;;;4912748;29;19928;-84
2022/03/12 04:27:44;;;;;;;;;;;8.70;99.90;;;;;;4894014;29;19928;-84
2022/03/12 04:30:12;;;;;;;;;;;8.80;99.90;;;;;;4944938;29;19931;-86
2022/03/12 04:32:44;;;;;;;;;;;8.70;99.90;;;;;;4914116;29;19927;-84
2022/03/12 04:35:13;;;;;;;;;;;8.70;99.90;;;;;;4914862;29;19950;-84
2022/03/12 04:37:41;;;;;;;;;;;8.80;99.90;;;;;;4913178;29;19939;-84
2022/03/12 04:40:18;;;;;;;;;;;8.80;99.90;;;;;;4900095;29;19934;-84
2022/03/12 04:42:46;;;;;;;;;;;8.80;99.90;;;;;;4908802;29;19927;-84
2022/03/12 04:45:17;;;;;;;;;;;8.80;99.90;;;;;;4943720;29;19927;-84
2022/03/12 04:47:46;;;;;;;;;;;8.70;99.90;;;;;;4911604;29;19928;-85
2022/03/12 04:50:14;;;;;;;;;;;8.70;99.90;;;;;;4914269;29;19927;-83
2022/03/12 04:52:46;;;;;;;;;;;8.60;99.90;;;;;;4929185;29;19928;-84
2022/03/12 04:55:21;;;;;;;;;;;8.60;99.90;;;;;;4913306;29;19943;-84
2022/03/12 04:57:49;;;;;;;;;;;8.60;99.90;;;;;;4905779;29;19950;-85
2022/03/12 05:00:18;;;;;;;;;;;8.60;99.90;;;;;;4914735;29;19927;-82
2022/03/12 05:02:46;;;;;;;;;;;10.40;99.90;;;;;;4913673;29;19927;-83
2022/03/12 05:05:15;;;;;;;;;;;8.90;99.90;;;;;;4913920;29;19932;-84
2022/03/12 05:07:44;;;;;;;;;;;8.60;99.90;;;;;;4913164;29;19931;-84
2022/03/12 05:10:22;;;;;;;;;;;8.60;99.90;;;;;;5051619;23;19931;-86
2022/03/12 05:13:00;;;;;;;;;;;8.60;99.90;;;;;;4963627;29;19936;-87
2022/03/12 05:15:38;;;;;;;;;;;8.60;99.90;;;;;;4951861;29;19937;-86
2022/03/12 05:18:08;;;;;;;;;;;8.60;99.90;;;;;;4964284;29;19922;-86
2022/03/12 05:20:36;;;;;;;;;;;8.70;99.90;;;;;;4963667;29;19933;-85
2022/03/12 05:23:07;;;;;;;;;;;8.70;99.90;;;;;;4935147;29;20708;-85
2022/03/12 05:25:41;;;;;;;;;;;8.70;99.90;;;;;;4971991;29;19926;-86
2022/03/12 05:28:10;;;;;;;;;;;8.70;99.90;;;;;;4971236;29;19930;-85
2022/03/12 05:30:39;;;;;;;;;;;10.20;99.90;;;;;;4949134;29;19935;-86
2022/03/12 05:33:08;;;;;;;;;;;8.60;99.90;;;;;;4967255;29;20180;-86
2022/03/12 05:35:39;;;;;;;;;;;8.70;99.90;;;;;;4964904;29;19961;-85
2022/03/12 05:38:11;;;;;;;;;;;8.20;99.90;;;;;;4958729;29;19919;-87
2022/03/12 05:40:48;;;;;;;;;;;8.70;99.90;;;;;;4954744;29;19926;-86
2022/03/12 05:43:17;;;;;;;;;;;8.70;99.90;;;;;;4937969;29;19926;-86
2022/03/12 05:45:45;;;;;;;;;;;8.70;99.90;;;;;;4948411;29;19927;-86
2022/03/12 05:48:14;;;;;;;;;;;8.70;99.90;;;;;;4964616;29;19927;-87
2022/03/12 05:50:45;;;;;;;;;;;8.70;99.90;;;;;;4970788;29;19933;-86
2022/03/12 05:53:16;;;;;;;;;;;8.70;99.90;;;;;;4964170;29;19930;-84
2022/03/12 05:55:47;;;;;;;;;;;8.60;99.90;;;;;;4972480;29;19922;-86
2022/03/12 05:58:19;;;;;;;;;;;8.70;99.90;;;;;;4965255;29;19921;-86
2022/03/12 06:00:54;;;;;;;;;;;8.70;99.90;;;;;;4967180;29;19941;-86
2022/03/12 06:03:24;;;;;;;;;;;8.70;99.90;;;;;;4963905;29;20349;-85
2022/03/12 06:05:58;;;;;;;;;;;8.60;99.90;;;;;;4954565;29;19937;-85
2022/03/12 06:08:28;;;;;;;;;;;8.60;99.90;;;;;;4928161;29;19933;-84
2022/03/12 06:10:56;;;;;;;;;;;8.50;99.90;;;;;;4966979;29;19930;-86
2022/03/12 06:13:29;;;;;;;;;;;7.00;99.90;;;;;;4936751;29;19937;-85
2022/03/12 06:16:02;;;;;;;;;;;8.50;99.90;;;;;;4968802;29;20363;-84
2022/03/12 06:18:36;;;;;;;;;;;8.40;99.90;;;;;;4948742;29;19930;-85
2022/03/12 06:21:06;;;;;;;;;;;8.30;99.90;;;;;;4939801;29;19933;-85
2022/03/12 06:23:34;;;;;;;;;;;8.30;99.90;;;;;;4965895;29;20394;-83
2022/03/12 06:26:03;;;;;;;;;;;8.20;99.90;;;;;;4972500;29;19941;-86
2022/03/12 06:28:33;;;;;;;;;;;8.20;99.90;;;;;;4968263;29;19921;-85
2022/03/12 06:31:03;;;;;;;;;;;8.20;99.90;;;;;;4950683;29;19933;-85
2022/03/12 06:33:32;;;;;;;;;;;8.20;99.90;;;;;;4958793;29;19964;-85
2022/03/12 06:36:03;;;;;;;;;;;8.10;99.90;;;;;;4970610;29;19927;-85
2022/03/12 06:38:35;;;;;;;;;;;8.10;99.90;;;;;;4970287;29;19927;-84
2022/03/12 06:41:04;;;;;;;;;;;8.00;99.90;;;;;;4969753;29;19927;-86
2022/03/12 06:43:34;;;;;;;;;;;8.00;99.90;;;;;;4969824;29;19934;-85
2022/03/12 06:46:02;;;;;;;;;;;8.00;99.90;;;;;;4967098;29;19927;-84
2022/03/12 06:48:31;;;;;;;;;;;8.00;99.90;;;;;;4970020;29;19936;-83
2022/03/12 06:51:00;;;;;;;;;;;7.90;99.90;;;;;;4952606;29;19930;-83
2022/03/12 06:53:29;;;;;;;;;;;7.80;99.90;;;;;;4968863;29;19927;-83
2022/03/12 06:55:59;;;;;;;;;;;7.90;99.90;;;;;;4955002;29;19918;-82
2022/03/12 06:58:31;;;;;;;;;;;7.90;99.90;;;;;;4970531;29;19926;-83
2022/03/12 07:01:00;;;;;;;;;;;7.90;99.90;;;;;;4951705;29;19930;-84
2022/03/12 07:03:28;;;;;;;;;;;7.90;99.90;;;;;;4961847;29;19937;-83
2022/03/12 07:05:56;;;;;;;;;;;7.90;99.90;;;;;;4968971;28;20303;-84
2022/03/12 07:08:25;;;;;;;;;;;8.00;99.90;;;;;;4965935;29;19938;-83
2022/03/12 07:10:53;;;;;;;;;;;8.00;99.90;;;;;;4965360;29;19945;-84
2022/03/12 07:13:25;;;;;;;;;;;8.00;99.90;;;;;;4959220;29;19932;-84
2022/03/12 07:15:54;;;;;;;;;;;8.00;99.90;;;;;;4966371;29;19936;-84
2022/03/12 07:18:22;;;;;;;;;;;8.60;99.90;;;;;;4935247;29;19937;-84
2022/03/12 07:20:50;;;;;;;;;;;8.10;99.90;;;;;;4958534;29;19930;-83
2022/03/12 07:23:17;;;;;;;;;;;8.10;99.90;;;;;;4939404;29;19926;-83
2022/03/12 07:25:45;;;;;;;;;;;8.10;99.90;;;;;;4964738;29;19930;-86
2022/03/12 07:28:18;;;;;;;;;;;8.10;99.90;;;;;;4959258;29;19926;-86
2022/03/12 07:30:46;;;;;;;;;;;8.10;99.90;;;;;;4941918;29;19937;-87
2022/03/12 07:33:14;;;;;;;;;;;8.20;99.90;;;;;;4960581;29;19937;-85
2022/03/12 07:35:44;;;;;;;;;;;7.80;99.90;;;;;;4957825;29;19933;-86
2022/03/12 07:38:12;;;;;;;;;;;8.40;99.90;;;;;;4955612;28;19922;-86
2022/03/12 07:40:41;;;;;;;;;;;8.50;99.90;;;;;;4952063;29;19934;-86
2022/03/12 07:43:09;;;;;;;;;;;8.60;99.90;;;;;;4966317;29;20288;-84
2022/03/12 07:45:43;;;;;;;;;;;8.70;99.90;;;;;;4954423;29;19933;-85
2022/03/12 07:48:13;;;;;;;;;;;8.80;99.90;;;;;;4969115;28;19933;-85
2022/03/12 07:51:03;;;;;;;;;;;8.90;99.90;;;;;;4959557;28;19937;-85
2022/03/12 07:53:32;;;;;;;;;;;9.00;99.90;;;;;;4963074;28;19922;-85
2022/03/12 07:56:01;;;;;;;;;;;9.00;99.90;;;;;;4969439;29;19941;-86
2022/03/12 07:58:30;;;;;;;;;;;9.00;99.90;;;;;;4968602;29;19926;-85
2022/03/12 08:00:58;;;;;;;;;;;11.00;99.90;;;;;;4952815;29;20007;-85
2022/03/12 08:03:29;;;;;;;;;;;10.30;99.90;;;;;;4969418;29;19930;-85
2022/03/12 08:05:59;;;;;;;;;;;9.10;99.90;;;;;;4969740;29;19926;-84
2022/03/12 08:08:54;;;;;;;;;;;9.20;99.90;;;;;;4968534;29;19930;-86
2022/03/12 08:11:28;;;;;;;;;;;9.10;99.90;;;;;;4967533;28;19927;-84
2022/03/12 08:14:22;;;;;;;;;;;9.20;99.90;;;;;;4971267;29;19937;-87
2022/03/12 08:16:48;;;;;;;;;;;9.20;99.90;;;;;;4968917;29;19933;-84
2022/03/12 08:19:17;;;;;;;;;;;9.20;99.90;;;;;;4971489;29;19927;-83
2022/03/12 08:21:49;;;;;;;;;;;9.20;99.90;;;;;;4951568;29;19933;-85
2022/03/12 08:24:17;;;;;;;;;;;9.20;99.90;;;;;;4949670;29;19927;-86
2022/03/12 08:26:46;;;;;;;;;;;9.20;99.90;;;;;;4952417;29;19935;-85
2022/03/12 08:29:15;;;;;;;;;;;9.50;99.90;;;;;;4946465;29;19944;-86
2022/03/12 08:31:43;;;;;;;;;;;9.20;99.90;;;;;;4963904;28;19937;-86
2022/03/12 08:34:14;;;;;;;;;;;9.30;99.90;;;;;;4969093;29;19933;-85
2022/03/12 08:36:44;;;;;;;;;;;9.20;99.90;;;;;;4949920;29;19927;-85
2022/03/12 08:39:13;;;;;;;;;;;9.50;99.90;;;;;;4944908;29;19937;-85
2022/03/12 08:41:41;;;;;;;;;;;9.10;99.90;;;;;;4961585;29;19933;-85
2022/03/12 08:44:12;;;;;;;;;;;9.10;99.90;;;;;;4984810;28;19933;-85
2022/03/12 08:46:42;;;;;;;;;;;9.00;99.90;;;;;;4973196;29;19931;-86
2022/03/12 08:49:16;;;;;;;;;;;9.10;99.90;;;;;;4969920;29;19922;-85
2022/03/12 08:51:47;;;;;;;;;;;9.30;99.90;;;;;;4953282;29;19941;-85
2022/03/12 08:54:15;;;;;;;;;;;9.10;99.90;;;;;;4965398;28;19934;-85
2022/03/12 08:56:44;;;;;;;;;;;9.10;99.90;;;;;;4968459;29;19926;-83
2022/03/12 08:59:17;;;;;;;;;;;9.10;99.90;;;;;;4967013;29;20350;-85
2022/03/12 09:01:46;;;;;;;;;;;9.20;99.90;;;;;;4969861;28;19937;-85
2022/03/12 09:04:17;;;;;;;;;;;9.30;99.90;;;;;;4952375;29;20080;-84
2022/03/12 09:06:47;;;;;;;;;;;9.70;99.90;;;;;;4959271;29;19968;-85
2022/03/12 09:09:21;;;;;;;;;;;9.50;99.90;;;;;;4958289;29;19930;-84
2022/03/12 09:11:50;;;;;;;;;;;9.60;99.90;;;;;;4965178;29;19926;-85
2022/03/12 09:14:19;;;;;;;;;;;9.70;99.90;;;;;;4966814;29;19926;-86
2022/03/12 09:16:49;;;;;;;;;;;9.90;99.90;;;;;;4955399;29;19923;-86
2022/03/12 09:19:19;;;;;;;;;;;10.20;99.90;;;;;;4951667;29;19933;-85
2022/03/12 09:22:17;;;;;;;;;;;10.20;99.90;;;;;;4961632;29;20057;-86
2022/03/12 09:24:52;;;;;;;;;;;11.30;99.90;;;;;;4969528;29;19945;-87
2022/03/12 09:27:19;;;;;;;;;;;10.40;99.90;;;;;;4949337;29;19933;-87
2022/03/12 09:29:48;;;;;;;;;;;10.50;99.90;;;;;;4951731;29;19933;-85
2022/03/12 09:32:18;;;;;;;;;;;10.50;99.90;;;;;;4968937;29;19945;-87
2022/03/12 09:34:45;;;;;;;;;;;10.60;99.90;;;;;;4951371;29;20205;-86
2022/03/12 09:37:17;;;;;;;;;;;10.70;99.90;;;;;;4951866;29;19927;-86
2022/03/12 09:39:46;;;;;;;;;;;11.00;99.90;;;;;;4947586;29;19933;-86
2022/03/12 09:42:14;;;;;;;;;;;10.80;99.90;;;;;;4970820;29;19930;-88
2022/03/12 09:44:44;;;;;;;;;;;11.00;99.90;;;;;;4937670;29;19927;-86
2022/03/12 09:47:18;;;;;;;;;;;11.10;99.90;;;;;;4970793;29;19931;-86
2022/03/12 09:49:47;;;;;;;;;;;11.40;99.90;;;;;;4950377;29;19926;-86
2022/03/12 09:52:16;;;;;;;;;;;11.40;99.90;;;;;;4968018;29;19942;-87
2022/03/12 09:54:44;;;;;;;;;;;11.70;99.90;;;;;;4933130;29;19926;-88
2022/03/12 09:57:13;;;;;;;;;;;11.60;99.90;;;;;;4955892;29;19938;-87
2022/03/12 09:59:42;;;;;;;;;;;11.60;99.90;;;;;;4950948;29;19946;-87
2022/03/12 10:02:11;;;;;;;;;;;11.60;99.90;;;;;;4952093;29;19937;-87
2022/03/12 10:04:41;;;;;;;;;;;11.60;99.90;;;;;;4969383;29;19926;-87
2022/03/12 10:07:13;;;;;;;;;;;11.40;99.90;;;;;;4937738;29;19931;-88
2022/03/12 10:09:42;;;;;;;;;;;11.20;99.90;;;;;;4933292;28;19926;-88
2022/03/12 10:12:11;;;;;;;;;;;11.20;99.90;;;;;;4948541;29;19941;-85
2022/03/12 10:14:41;;;;;;;;;;;11.10;99.90;;;;;;4945180;29;19927;-88
2022/03/12 10:17:13;;;;;;;;;;;11.00;99.90;;;;;;4934755;29;19914;-88
2022/03/12 10:19:41;;;;;;;;;;;10.90;99.90;;;;;;4935368;29;19926;-87
2022/03/12 10:22:10;;;;;;;;;;;11.00;99.90;;;;;;4964037;29;20069;-88
2022/03/12 10:24:41;;;;;;;;;;;10.90;99.90;;;;;;4935253;29;19933;-88
2022/03/12 10:27:12;;;;;;;;;;;10.70;99.90;;;;;;4916766;29;19931;-90
2022/03/12 10:29:41;;;;;;;;;;;11.20;99.90;;;;;;4933620;29;19925;-89
2022/03/12 10:32:24;;;;;;;;;;;12.80;99.90;;;;;;4918886;29;20005;-90
2022/03/12 10:34:56;;;;;;;;;;;11.00;99.90;;;;;;4946971;29;19934;-89
2022/03/12 10:37:27;;;;;;;;;;;11.10;99.90;;;;;;4918234;29;19925;-90
2022/03/12 10:40:03;;;;;;;;;;;11.10;99.90;;;;;;4948513;29;20377;-88
2022/03/12 10:43:07;;;;;;;;;;;11.80;99.90;;;;;;4951740;29;19931;-89
2022/03/12 10:45:40;;;;;;;;;;;11.40;99.90;;;;;;4946905;29;19963;-88
2022/03/12 10:48:09;;;;;;;;;;;11.50;99.90;;;;;;4915010;29;19927;-89
2022/03/12 10:50:39;;;;;;;;;;;11.40;99.90;;;;;;4939816;29;19917;-89
2022/03/12 10:53:07;;;;;;;;;;;11.40;99.90;;;;;;4942007;29;19941;-89
2022/03/12 10:55:46;;;;;;;;;;;11.30;99.90;;;;;;4932406;29;19935;-88
2022/03/12 10:58:16;;;;;;;;;;;11.20;99.90;;;;;;4938997;29;19927;-89
2022/03/12 11:00:46;;;;;;;;;;;11.10;99.90;;;;;;4949910;29;19957;-89
2022/03/12 11:03:20;;;;;;;;;;;11.00;99.90;;;;;;4946905;29;19934;-90
2022/03/12 11:05:51;;;;;;;;;;;11.00;99.90;;;;;;4930912;29;20331;-88
2022/03/12 11:08:29;;;;;;;;;;;11.00;99.90;;;;;;4902357;29;20124;-91
2022/03/12 11:11:01;;;;;;;;;;;11.00;99.90;;;;;;4961343;28;20451;-86
2022/03/12 11:13:40;;;;;;;;;;;10.90;99.90;;;;;;4976125;28;19930;-83
2022/03/12 11:16:14;;;;;;;;;;;10.90;99.90;;;;;;4964125;29;20054;-86
2022/03/12 11:18:53;;;;;;;;;;;12.40;99.90;;;;;;4965210;29;19930;-86
2022/03/12 11:21:40;;;;;;;;;;;11.00;99.90;;;;;;4966671;29;19937;-86
2022/03/12 11:24:25;;;;;;;;;;;;;;;;;;;;;
2022/03/12 11:27:09;;;;;;;;;;;11.10;99.90;;;;;;4961919;29;19915;-85
2022/03/12 11:30:08;;;;;;;;;;;11.40;99.90;;;;;;4951333;28;19953;-85
2022/03/12 11:32:44;;;;;;;;;;;10.90;99.90;;;;;;4955574;28;19933;-87
2022/03/12 11:35:22;;;;;;;;;;;11.30;99.90;;;;;;4981703;28;20264;-86
2022/03/12 11:38:19;;;;;;;;;;;11.70;99.90;;;;;;4967523;29;19933;-85
2022/03/12 11:41:26;;;;;;;;;;;11.60;99.90;;;;;;4954117;29;19927;-86
2022/03/12 11:44:42;;;;;;;;;;;10.60;99.90;;;;;;4939246;29;19933;-87
2022/03/12 11:47:29;;;;;;;;;;;;;;;;;;;;;
2022/03/12 11:50:37;;;;;;;;;;;12.10;99.90;;;;;;4944194;29;19934;-83
2022/03/12 11:53:09;;;;;;;;;;;12.10;99.90;;;;;;4968198;29;19937;-83
2022/03/12 11:55:39;;;;;;;;;;;12.20;99.90;;;;;;4966195;29;19930;-83
2022/03/12 11:58:21;;;;;;;;;;;12.40;99.90;;;;;;4968196;28;19930;-82
2022/03/12 12:00:52;;;;;;;;;;;12.40;99.90;;;;;;4970849;29;19940;-84
2022/03/12 12:03:20;;;;;;;;;;;12.50;99.90;;;;;;4968027;28;19926;-82
2022/03/12 12:05:48;;;;;;;;;;;12.40;99.90;;;;;;4969265;29;19943;-82
2022/03/12 12:08:20;;;;;;;;;;;12.40;99.90;;;;;;4927021;29;19926;-82
2022/03/12 12:10:49;;;;;;;;;;;12.50;99.90;;;;;;4968125;28;19941;-83
2022/03/12 12:13:18;;;;;;;;;;;10.90;99.90;;;;;;4968919;29;19937;-83
2022/03/12 12:15:56;;;;;;;;;;;12.60;99.90;;;;;;4969853;29;19932;-83
2022/03/12 12:18:28;;;;;;;;;;;12.60;99.90;;;;;;4964790;29;19930;-83
2022/03/12 12:20:56;;;;;;;;;;;12.80;99.90;;;;;;4965501;28;19958;-82
2022/03/12 12:23:26;;;;;;;;;;;12.80;99.90;;;;;;4966641;29;19930;-82
2022/03/12 12:26:10;;;;;;;;;;;12.80;99.90;;;;;;4964732;29;19936;-82
2022/03/12 12:28:47;;;;;;;;;;;12.50;99.90;;;;;;4968549;29;19927;-83
2022/03/12 12:31:25;;;;;;;;;;;12.60;99.90;;;;;;4980804;28;19926;-83
2022/03/12 12:33:55;;;;;;;;;;;12.70;99.90;;;;;;4964894;29;20581;-82
2022/03/12 12:36:23;;;;;;;;;;;12.80;99.90;;;;;;4964982;29;19934;-83
2022/03/12 12:39:03;;;;;;;;;;;13.20;99.90;;;;;;4963858;29;19932;-83
2022/03/12 12:41:58;;;;;;;;;;;13.10;99.90;;;;;;4961050;29;19936;-83
2022/03/12 12:44:44;;;;;;;;;;;13.40;99.90;;;;;;4960212;29;19931;-83
2022/03/12 12:47:18;;;;;;;;;;;14.60;99.90;;;;;;4961675;29;20405;-82
2022/03/12 12:49:52;;;;;;;;;;;13.50;99.90;;;;;;4959790;29;19926;-82
2022/03/12 12:52:22;;;;;;;;;;;13.60;99.90;;;;;;4961342;29;20138;-83
2022/03/12 12:55:01;;;;;;;;;;;13.60;99.90;;;;;;4963472;29;19930;-82
2022/03/12 12:57:44;;;;;;;;;;;13.70;99.90;;;;;;4962131;29;19927;-83
2022/03/12 13:00:19;;;;;;;;;;;13.80;99.90;;;;;;4964153;29;19922;-84
2022/03/12 13:02:51;;;;;;;;;;;13.80;99.90;;;;;;4962749;29;19930;-81
2022/03/12 13:05:41;;;;;;;;;;;13.80;99.90;;;;;;4959792;28;19933;-84
2022/03/12 13:08:10;;;;;;;;;;;14.10;99.90;;;;;;4960968;29;19931;-84
2022/03/12 13:10:43;;;;;;;;;;;14.20;98.70;;;;;;4967180;29;19939;-84
2022/03/12 13:13:15;;;;;;;;;;;14.10;99.20;;;;;;4946714;29;19938;-83
2022/03/12 13:15:47;;;;;;;;;;;14.30;99.30;;;;;;4962431;29;19934;-83
2022/03/12 13:18:27;;;;;;;;;;;13.70;99.20;;;;;;4964682;29;19927;-83
2022/03/12 13:21:02;;;;;;;;;;;13.90;99.10;;;;;;4976394;28;19927;-84
2022/03/12 13:23:38;;;;;;;;;;;13.90;98.90;;;;;;4976734;28;19930;-84
2022/03/12 13:26:13;;;;;;;;;;;13.50;98.30;;;;;;4962618;29;20380;-84
2022/03/12 13:28:51;;;;;;;;;;;14.20;98.90;;;;;;4972160;28;19931;-85
2022/03/12 13:31:24;;;;;;;;;;;14.10;98.80;;;;;;4960741;29;19934;-85
2022/03/12 13:33:59;;;;;;;;;;;14.20;98.70;;;;;;4961926;29;19927;-84
2022/03/12 13:36:30;;;;;;;;;;;14.30;99.10;;;;;;4967436;29;19930;-84
2022/03/12 13:38:59;;;;;;;;;;;14.30;99.00;;;;;;4934590;29;19937;-83
2022/03/12 13:41:32;;;;;;;;;;;14.20;99.40;;;;;;4966443;29;19933;-83
2022/03/12 13:44:00;;;;;;;;;;;14.00;98.10;;;;;;4961315;28;19941;-83
2022/03/12 13:46:29;;;;;;;;;;;14.10;98.20;;;;;;4966543;29;19915;-82
2022/03/12 13:49:01;;;;;;;;;;;14.20;98.30;;;;;;4964565;29;19926;-82
2022/03/12 13:51:30;;;;;;;;;;;14.20;98.40;;;;;;4949589;29;19931;-84
2022/03/12 13:54:00;;;;;;;;;;;14.50;97.70;;;;;;4965180;28;20803;-83
2022/03/12 13:56:31;;;;;;;;;;;14.50;97.80;;;;;;4966020;29;20207;-83
2022/03/12 13:59:03;;;;;;;;;;;14.60;97.00;;;;;;4947833;29;19937;-83
2022/03/12 14:01:35;;;;;;;;;;;14.70;97.00;;;;;;4964197;29;19930;-84
2022/03/12 14:04:06;;;;;;;;;;;14.60;96.80;;;;;;4965110;29;19956;-85
2022/03/12 14:06:39;;;;;;;;;;;13.50;95.80;;;;;;4949293;29;19937;-85
2022/03/12 14:09:15;;;;;;;;;;;14.20;96.60;;;;;;4946835;29;20107;-84
2022/03/12 14:11:50;;;;;;;;;;;14.80;95.80;;;;;;4949659;28;19930;-84
2022/03/12 14:14:22;;;;;;;;;;;14.70;96.20;;;;;;4918368;29;19931;-84
2022/03/12 14:16:56;;;;;;;;;;;14.70;96.10;;;;;;4931807;29;19938;-86
2022/03/12 14:19:25;;;;;;;;;;;14.70;96.40;;;;;;4929356;29;19930;-84
2022/03/12 14:21:59;;;;;;;;;;;16.50;97.30;;;;;;4929445;29;19931;-84
2022/03/12 14:24:32;;;;;;;;;;;15.30;97.00;;;;;;4947649;29;19936;-84
2022/03/12 14:27:01;;;;;;;;;;;15.10;96.30;;;;;;4953276;29;20444;-83
2022/03/12 14:29:33;;;;;;;;;;;14.70;95.80;;;;;;4925413;29;19937;-83
2022/03/12 14:32:07;;;;;;;;;;;14.70;95.70;;;;;;4949046;29;19935;-84
2022/03/12 14:34:40;;;;;;;;;;;14.70;95.20;;;;;;4943740;29;19927;-82
2022/03/12 14:37:08;;;;;;;;;;;14.70;95.90;;;;;;4954055;29;19930;-84
2022/03/12 14:39:38;;;;;;;;;;;14.70;95.70;;;;;;4931574;29;19949;-84
2022/03/12 14:42:08;;;;;;;;;;;15.00;95.70;;;;;;4934840;29;20019;-82
2022/03/12 14:44:41;;;;;;;;;;;15.40;95.80;;;;;;4948086;29;19927;-85
2022/03/12 14:47:10;;;;;;;;;;;14.80;95.20;;;;;;4947087;29;20181;-84
2022/03/12 14:49:46;;;;;;;;;;;16.30;96.00;;;;;;4933516;29;19927;-83
2022/03/12 14:52:20;;;;;;;;;;;16.70;94.60;;;;;;4931240;29;19938;-84
2022/03/12 14:54:50;;;;;;;;;;;17.00;94.40;;;;;;4928132;29;19941;-84